sensor_id;sensor_type;location;lat;lon;timestamp;pressure;altitude;pressure_sealevel;temperature;humidity
68399;BME280;56258;52.196;13.868;2022-10-16T00:01:12;100798.03;;;22.27;47.43
68399;BME280;56258;52.196;13.868;2022-10-16T00:03:40;100804.09;;;22.29;46.94
68399;BME280;56258;52.196;13.868;2022-10-16T00:06:08;100798.25;;;22.32;46.82
68399;BME280;56258;52.196;13.868;2022-10-16T00:08:35;100805.56;;;22.32;47.45
68399;BME280;56258;52.196;13.868;2022-10-16T00:11:08;100798.66;;;22.29;46.84
68399;BME280;56258;52.196;13.868;2022-10-16T00:13:36;100796.78;;;22.30;47.11
68399;BME280;56258;52.196;13.868;2022-10-16T00:16:04;100799.28;;;22.25;47.29
68399;BME280;56258;52.196;13.868;2022-10-16T00:18:30;100813.03;;;22.30;47.37
68399;BME280;56258;52.196;13.868;2022-10-16T00:21:09;100815.13;;;22.28;47.36
68399;BME280;56258;52.196;13.868;2022-10-16T00:23:36;100815.13;;;22.28;47.43
68399;BME280;56258;52.196;13.868;2022-10-16T00:26:12;100826.97;;;22.27;47.08
68399;BME280;56258;52.196;13.868;2022-10-16T00:28:39;100824.84;;;22.22;47.49
68399;BME280;56258;52.196;13.868;2022-10-16T00:31:08;100826.56;;;22.23;46.88
68399;BME280;56258;52.196;13.868;2022-10-16T00:33:36;100815.72;;;22.23;47.47
68399;BME280;56258;52.196;13.868;2022-10-16T00:36:04;100819.91;;;22.26;47.55
68399;BME280;56258;52.196;13.868;2022-10-16T00:38:31;100824.28;;;22.27;47.35
68399;BME280;56258;52.196;13.868;2022-10-16T00:40:58;100822.59;;;22.26;47.28
68399;BME280;56258;52.196;13.868;2022-10-16T00:43:52;100830.53;;;22.27;47.13
68399;BME280;56258;52.196;13.868;2022-10-16T00:51:37;100845.09;;;22.26;47.12
68399;BME280;56258;52.196;13.868;2022-10-16T00:54:10;100848.00;;;22.25;47.33
68399;BME280;56258;52.196;13.868;2022-10-16T00:56:38;100848.84;;;22.25;47.51
68399;BME280;56258;52.196;13.868;2022-10-16T00:59:07;100837.56;;;22.22;47.58
68399;BME280;56258;52.196;13.868;2022-10-16T01:01:37;100839.06;;;22.24;47.26
68399;BME280;56258;52.196;13.868;2022-10-16T01:04:04;100839.41;;;22.21;47.32
68399;BME280;56258;52.196;13.868;2022-10-16T01:06:46;100833.16;;;22.21;47.72
68399;BME280;56258;52.196;13.868;2022-10-16T01:11:49;100839.00;;;22.18;47.91
68399;BME280;56258;52.196;13.868;2022-10-16T01:17:34;100835.69;;;22.22;47.53
68399;BME280;56258;52.196;13.868;2022-10-16T01:20:14;100841.09;;;22.22;47.35
68399;BME280;56258;52.196;13.868;2022-10-16T01:25:44;100836.50;;;22.23;47.50
68399;BME280;56258;52.196;13.868;2022-10-16T01:28:17;100849.41;;;22.21;47.53
68399;BME280;56258;52.196;13.868;2022-10-16T01:30:46;100846.72;;;22.21;47.78
68399;BME280;56258;52.196;13.868;2022-10-16T01:33:21;100855.47;;;22.23;47.02
68399;BME280;56258;52.196;13.868;2022-10-16T01:35:55;100859.22;;;22.22;47.37
68399;BME280;56258;52.196;13.868;2022-10-16T01:38:30;100857.16;;;22.24;47.38
68399;BME280;56258;52.196;13.868;2022-10-16T01:41:01;100857.34;;;22.22;47.09
68399;BME280;56258;52.196;13.868;2022-10-16T01:43:38;100851.28;;;22.20;47.59
68399;BME280;56258;52.196;13.868;2022-10-16T01:46:08;100858.38;;;22.21;47.25
68399;BME280;56258;52.196;13.868;2022-10-16T01:48:36;100851.50;;;22.19;47.06
68399;BME280;56258;52.196;13.868;2022-10-16T01:51:08;100849.41;;;22.21;47.04
68399;BME280;56258;52.196;13.868;2022-10-16T01:53:36;100853.34;;;22.18;47.64
68399;BME280;56258;52.196;13.868;2022-10-16T01:56:05;100863.56;;;22.16;47.93
68399;BME280;56258;52.196;13.868;2022-10-16T01:58:35;100861.03;;;22.15;47.11
68399;BME280;56258;52.196;13.868;2022-10-16T02:01:04;100870.66;;;22.17;47.16
68399;BME280;56258;52.196;13.868;2022-10-16T02:03:36;100867.53;;;22.20;47.35
68399;BME280;56258;52.196;13.868;2022-10-16T02:06:03;100872.50;;;22.17;47.25
68399;BME280;56258;52.196;13.868;2022-10-16T02:08:30;100874.38;;;22.16;47.28
68399;BME280;56258;52.196;13.868;2022-10-16T02:10:58;100874.38;;;22.16;47.55
68399;BME280;56258;52.196;13.868;2022-10-16T02:13:34;100883.34;;;22.17;47.94
68399;BME280;56258;52.196;13.868;2022-10-16T02:16:02;100882.50;;;22.16;47.47
68399;BME280;56258;52.196;13.868;2022-10-16T02:18:29;100888.97;;;22.15;47.30
68399;BME280;56258;52.196;13.868;2022-10-16T02:21:27;100893.53;;;22.15;47.93
68399;BME280;56258;52.196;13.868;2022-10-16T02:27:25;100890.19;;;22.12;47.62
68399;BME280;56258;52.196;13.868;2022-10-16T02:29:56;100891.22;;;22.11;47.56
68399;BME280;56258;52.196;13.868;2022-10-16T02:32:30;100884.78;;;22.12;47.26
68399;BME280;56258;52.196;13.868;2022-10-16T02:34:58;100879.38;;;22.12;47.18
68399;BME280;56258;52.196;13.868;2022-10-16T02:37:26;100885.41;;;22.15;47.55
68399;BME280;56258;52.196;13.868;2022-10-16T02:39:55;100888.53;;;22.11;47.25
68399;BME280;56258;52.196;13.868;2022-10-16T02:42:29;100890.00;;;22.14;47.23
68399;BME280;56258;52.196;13.868;2022-10-16T02:44:56;100889.59;;;22.17;47.16
68399;BME280;56258;52.196;13.868;2022-10-16T02:47:22;100887.09;;;22.16;47.43
68399;BME280;56258;52.196;13.868;2022-10-16T02:49:49;100884.38;;;22.16;47.13
68399;BME280;56258;52.196;13.868;2022-10-16T02:52:16;100892.09;;;22.19;47.42
68399;BME280;56258;52.196;13.868;2022-10-16T02:54:42;100894.81;;;22.19;47.67
68399;BME280;56258;52.196;13.868;2022-10-16T02:57:09;100897.91;;;22.16;47.76
68399;BME280;56258;52.196;13.868;2022-10-16T02:59:35;100888.38;;;22.20;47.28
68399;BME280;56258;52.196;13.868;2022-10-16T03:02:02;100896.88;;;22.17;47.13
68399;BME280;56258;52.196;13.868;2022-10-16T03:04:29;100901.25;;;22.18;47.77
68399;BME280;56258;52.196;13.868;2022-10-16T03:06:55;100905.66;;;22.19;46.88
68399;BME280;56258;52.196;13.868;2022-10-16T03:09:22;100914.41;;;22.21;46.92
68399;BME280;56258;52.196;13.868;2022-10-16T03:11:49;100907.13;;;22.21;47.70
68399;BME280;56258;52.196;13.868;2022-10-16T03:14:15;100924.22;;;22.22;46.92
68399;BME280;56258;52.196;13.868;2022-10-16T03:16:42;100916.28;;;22.20;47.66
68399;BME280;56258;52.196;13.868;2022-10-16T03:19:08;100918.78;;;22.22;47.19
68399;BME280;56258;52.196;13.868;2022-10-16T03:21:35;100929.81;;;22.20;47.73
68399;BME280;56258;52.196;13.868;2022-10-16T03:24:02;100925.25;;;22.21;47.09
68399;BME280;56258;52.196;13.868;2022-10-16T03:26:29;100922.53;;;22.21;46.91
68399;BME280;56258;52.196;13.868;2022-10-16T03:28:55;100923.38;;;22.21;47.02
68399;BME280;56258;52.196;13.868;2022-10-16T03:31:22;100930.47;;;22.22;47.00
68399;BME280;56258;52.196;13.868;2022-10-16T03:33:48;100926.28;;;22.20;47.69
68399;BME280;56258;52.196;13.868;2022-10-16T03:36:15;100923.56;;;22.20;47.60
68399;BME280;56258;52.196;13.868;2022-10-16T03:38:42;100927.75;;;22.22;46.91
68399;BME280;56258;52.196;13.868;2022-10-16T03:41:08;100941.28;;;22.22;47.21
68399;BME280;56258;52.196;13.868;2022-10-16T03:43:35;100937.94;;;22.20;47.79
68399;BME280;56258;52.196;13.868;2022-10-16T03:46:02;100940.84;;;22.19;47.50
68399;BME280;56258;52.196;13.868;2022-10-16T03:48:29;100947.31;;;22.18;47.48
68399;BME280;56258;52.196;13.868;2022-10-16T03:50:55;100947.94;;;22.20;46.98
68399;BME280;56258;52.196;13.868;2022-10-16T03:53:22;100947.94;;;22.20;47.15
68399;BME280;56258;52.196;13.868;2022-10-16T03:55:49;100954.84;;;22.22;46.95
68399;BME280;56258;52.196;13.868;2022-10-16T03:58:16;100950.00;;;22.18;47.71
68399;BME280;56258;52.196;13.868;2022-10-16T04:00:43;100967.94;;;22.19;47.12
68399;BME280;56258;52.196;13.868;2022-10-16T04:03:11;100970.63;;;22.19;47.18
68399;BME280;56258;52.196;13.868;2022-10-16T04:05:38;100958.78;;;22.20;47.11
68399;BME280;56258;52.196;13.868;2022-10-16T04:08:05;100961.47;;;22.20;47.11
68399;BME280;56258;52.196;13.868;2022-10-16T04:10:32;100967.94;;;22.19;47.02
68399;BME280;56258;52.196;13.868;2022-10-16T04:12:59;100972.31;;;22.20;47.58
68399;BME280;56258;52.196;13.868;2022-10-16T04:15:25;100964.19;;;22.20;47.14
68399;BME280;56258;52.196;13.868;2022-10-16T04:17:52;100969.41;;;22.21;47.64
68399;BME280;56258;52.196;13.868;2022-10-16T04:20:19;100968.38;;;22.22;47.07
68399;BME280;56258;52.196;13.868;2022-10-16T04:22:45;100959.41;;;22.22;47.40
68399;BME280;56258;52.196;13.868;2022-10-16T04:25:12;100959.59;;;22.20;47.44
68399;BME280;56258;52.196;13.868;2022-10-16T04:27:39;100961.75;;;22.25;47.36
68399;BME280;56258;52.196;13.868;2022-10-16T04:30:10;100977.34;;;22.23;47.53
68399;BME280;56258;52.196;13.868;2022-10-16T04:32:37;100976.06;;;22.19;47.60
68399;BME280;56258;52.196;13.868;2022-10-16T04:35:04;100969.59;;;22.20;47.14
68399;BME280;56258;52.196;13.868;2022-10-16T04:37:30;100970.44;;;22.20;47.14
68399;BME280;56258;52.196;13.868;2022-10-16T04:39:57;100974.63;;;22.23;47.53
68399;BME280;56258;52.196;13.868;2022-10-16T04:42:23;100981.75;;;22.24;47.32
68399;BME280;56258;52.196;13.868;2022-10-16T04:44:50;100978.56;;;22.20;47.50
68399;BME280;56258;52.196;13.868;2022-10-16T04:47:17;100977.72;;;22.20;47.64
68399;BME280;56258;52.196;13.868;2022-10-16T04:49:43;100969.59;;;22.20;46.98
68399;BME280;56258;52.196;13.868;2022-10-16T04:52:10;100969.16;;;22.16;47.78
68399;BME280;56258;52.196;13.868;2022-10-16T04:54:37;100974.38;;;22.18;47.39
68399;BME280;56258;52.196;13.868;2022-10-16T04:57:03;100977.09;;;22.18;47.80
68399;BME280;56258;52.196;13.868;2022-10-16T04:59:31;100968.53;;;22.14;47.18
68399;BME280;56258;52.196;13.868;2022-10-16T05:01:58;100974.13;;;22.12;47.23
68399;BME280;56258;52.196;13.868;2022-10-16T05:04:24;100985.59;;;22.15;47.82
68399;BME280;56258;52.196;13.868;2022-10-16T05:06:51;100990.19;;;22.14;47.26
68399;BME280;56258;52.196;13.868;2022-10-16T05:09:17;100996.63;;;22.13;47.20
68399;BME280;56258;52.196;13.868;2022-10-16T05:11:44;100989.34;;;22.13;47.78
68399;BME280;56258;52.196;13.868;2022-10-16T05:14:10;100987.47;;;22.14;47.85
68399;BME280;56258;52.196;13.868;2022-10-16T05:16:37;100977.88;;;22.11;47.30
68399;BME280;56258;52.196;13.868;2022-10-16T05:19:04;100973.47;;;22.10;47.22
68399;BME280;56258;52.196;13.868;2022-10-16T05:21:50;100980.38;;;22.13;47.58
68399;BME280;56258;52.196;13.868;2022-10-16T05:24:17;100979.53;;;22.12;47.13
68399;BME280;56258;52.196;13.868;2022-10-16T05:26:44;100982.63;;;22.09;47.19
68399;BME280;56258;52.196;13.868;2022-10-16T05:29:10;100978.22;;;22.08;47.57
68399;BME280;56258;52.196;13.868;2022-10-16T05:31:37;100990.75;;;22.09;48.03
68399;BME280;56258;52.196;13.868;2022-10-16T05:34:04;101001.38;;;22.11;47.86
68399;BME280;56258;52.196;13.868;2022-10-16T05:36:30;101009.50;;;22.11;47.89
68399;BME280;56258;52.196;13.868;2022-10-16T05:38:57;101009.13;;;22.14;47.56
68399;BME280;56258;52.196;13.868;2022-10-16T05:41:23;101018.09;;;22.15;47.92
68399;BME280;56258;52.196;13.868;2022-10-16T05:43:52;101026.59;;;22.11;47.32
68399;BME280;56258;52.196;13.868;2022-10-16T05:46:19;101020.41;;;22.18;47.72
68399;BME280;56258;52.196;13.868;2022-10-16T05:48:46;101023.56;;;22.21;48.02
68399;BME280;56258;52.196;13.868;2022-10-16T05:51:14;101024.59;;;22.20;47.02
68399;BME280;56258;52.196;13.868;2022-10-16T05:53:41;101020.94;;;22.28;47.60
68399;BME280;56258;52.196;13.868;2022-10-16T05:56:12;101025.22;;;22.37;47.72
68399;BME280;56258;52.196;13.868;2022-10-16T05:58:39;101030.50;;;22.45;48.11
68399;BME280;56258;52.196;13.868;2022-10-16T06:01:18;101038.25;;;22.48;47.81
68399;BME280;56258;52.196;13.868;2022-10-16T06:03:45;101030.81;;;22.57;47.01
68399;BME280;56258;52.196;13.868;2022-10-16T06:06:14;101024.19;;;22.59;47.44
68399;BME280;56258;52.196;13.868;2022-10-16T06:08:42;101018.97;;;22.58;46.97
68399;BME280;56258;52.196;13.868;2022-10-16T06:11:14;101029.66;;;22.66;47.14
68399;BME280;56258;52.196;13.868;2022-10-16T06:13:41;101032.03;;;22.54;47.17
68399;BME280;56258;52.196;13.868;2022-10-16T06:16:10;101039.94;;;22.49;47.33
68399;BME280;56258;52.196;13.868;2022-10-16T06:18:37;101039.94;;;22.49;47.94
68399;BME280;56258;52.196;13.868;2022-10-16T06:21:23;101039.34;;;22.54;47.36
68399;BME280;56258;52.196;13.868;2022-10-16T06:23:54;101042.00;;;22.47;47.43
68399;BME280;56258;52.196;13.868;2022-10-16T06:26:23;101042.00;;;22.47;47.54
68399;BME280;56258;52.196;13.868;2022-10-16T06:28:51;101041.91;;;22.40;47.84
68399;BME280;56258;52.196;13.868;2022-10-16T06:31:18;101046.06;;;22.36;48.09
68399;BME280;56258;52.196;13.868;2022-10-16T06:33:44;101047.94;;;22.36;47.52
68399;BME280;56258;52.196;13.868;2022-10-16T06:36:15;101039.84;;;22.42;47.52
68399;BME280;56258;52.196;13.868;2022-10-16T06:38:42;101051.31;;;22.45;47.57
68399;BME280;56258;52.196;13.868;2022-10-16T06:41:12;101048.91;;;22.50;47.25
68399;BME280;56258;52.196;13.868;2022-10-16T06:43:39;101058.31;;;22.54;47.21
68399;BME280;56258;52.196;13.868;2022-10-16T06:46:07;101057.22;;;22.48;47.56
68399;BME280;56258;52.196;13.868;2022-10-16T06:48:35;101048.25;;;22.48;47.57
68399;BME280;56258;52.196;13.868;2022-10-16T06:51:06;101044.50;;;22.49;46.83
68399;BME280;56258;52.196;13.868;2022-10-16T06:53:35;101048.91;;;22.50;47.50
68399;BME280;56258;52.196;13.868;2022-10-16T06:56:10;101051.59;;;22.50;47.10
68399;BME280;56258;52.196;13.868;2022-10-16T06:58:37;101064.13;;;22.51;47.40
68399;BME280;56258;52.196;13.868;2022-10-16T07:01:05;101067.84;;;22.50;46.79
68399;BME280;56258;52.196;13.868;2022-10-16T07:03:32;101070.38;;;22.51;46.85
68399;BME280;56258;52.196;13.868;2022-10-16T07:06:05;101082.25;;;22.50;47.17
68399;BME280;56258;52.196;13.868;2022-10-16T07:08:40;101095.34;;;22.47;47.27
68399;BME280;56258;52.196;13.868;2022-10-16T07:11:10;101100.38;;;22.50;47.13
68399;BME280;56258;52.196;13.868;2022-10-16T07:13:39;101109.97;;;22.52;46.65
68399;BME280;56258;52.196;13.868;2022-10-16T07:16:08;101099.16;;;22.52;47.17
68399;BME280;56258;52.196;13.868;2022-10-16T07:18:35;101101.09;;;22.58;46.84
68399;BME280;56258;52.196;13.868;2022-10-16T07:21:15;101096.69;;;22.57;46.60
68399;BME280;56258;52.196;13.868;2022-10-16T07:23:43;101097.06;;;22.54;47.05
68399;BME280;56258;52.196;13.868;2022-10-16T07:26:10;101099.03;;;22.60;46.71
68399;BME280;56258;52.196;13.868;2022-10-16T07:28:37;101106.53;;;22.58;46.86
68399;BME280;56258;52.196;13.868;2022-10-16T07:31:09;101125.66;;;22.57;47.14
68399;BME280;56258;52.196;13.868;2022-10-16T07:33:37;101120.22;;;22.57;47.22
68399;BME280;56258;52.196;13.868;2022-10-16T07:36:05;101120.06;;;22.58;46.57
68399;BME280;56258;52.196;13.868;2022-10-16T07:38:32;101125.09;;;22.61;46.46
68399;BME280;56258;52.196;13.868;2022-10-16T07:41:03;101125.66;;;22.57;47.03
68399;BME280;56258;52.196;13.868;2022-10-16T07:43:31;101127.91;;;22.53;46.97
68399;BME280;56258;52.196;13.868;2022-10-16T07:45:58;101123.72;;;22.51;46.73
68399;BME280;56258;52.196;13.868;2022-10-16T07:48:31;101123.34;;;22.54;46.67
68399;BME280;56258;52.196;13.868;2022-10-16T07:50:59;101131.66;;;22.52;47.31
68399;BME280;56258;52.196;13.868;2022-10-16T07:53:27;101135.00;;;22.54;46.88
68399;BME280;56258;52.196;13.868;2022-10-16T07:56:01;101135.22;;;22.89;45.86
68399;BME280;56258;52.196;13.868;2022-10-16T07:58:28;101136.84;;;22.83;46.28
68399;BME280;56258;52.196;13.868;2022-10-16T08:00:56;101140.28;;;22.77;46.66
68399;BME280;56258;52.196;13.868;2022-10-16T08:03:23;101122.78;;;22.94;45.66
68399;BME280;56258;52.196;13.868;2022-10-16T08:05:51;101116.22;;;23.32;44.83
68399;BME280;56258;52.196;13.868;2022-10-16T08:08:18;101113.59;;;22.95;45.64
68399;BME280;56258;52.196;13.868;2022-10-16T08:10:45;101113.28;;;22.84;45.91
68399;BME280;56258;52.196;13.868;2022-10-16T08:13:12;101119.91;;;22.81;46.14
68399;BME280;56258;52.196;13.868;2022-10-16T08:15:42;101136.47;;;22.71;46.69
68399;BME280;56258;52.196;13.868;2022-10-16T08:18:10;101151.41;;;22.67;46.28
68399;BME280;56258;52.196;13.868;2022-10-16T08:20:38;101144.78;;;22.70;46.48
68399;BME280;56258;52.196;13.868;2022-10-16T08:23:05;101149.19;;;22.71;46.40
68399;BME280;56258;52.196;13.868;2022-10-16T08:25:34;101147.41;;;22.63;46.54
68399;BME280;56258;52.196;13.868;2022-10-16T08:28:03;101150.72;;;22.59;46.81
68399;BME280;56258;52.196;13.868;2022-10-16T08:30:31;101146.13;;;22.59;46.83
68399;BME280;56258;52.196;13.868;2022-10-16T08:32:58;101141.34;;;22.61;46.79
68399;BME280;56258;52.196;13.868;2022-10-16T08:35:25;101151.75;;;22.58;47.15
68399;BME280;56258;52.196;13.868;2022-10-16T08:37:51;101152.94;;;22.55;46.64
68399;BME280;56258;52.196;13.868;2022-10-16T08:40:24;101155.00;;;22.53;46.89
68399;BME280;56258;52.196;13.868;2022-10-16T08:48:47;101172.44;;;22.65;46.79
68399;BME280;56258;52.196;13.868;2022-10-16T08:53:52;101169.00;;;22.71;46.53
68399;BME280;56258;52.196;13.868;2022-10-16T08:56:20;101167.38;;;22.77;46.35
68399;BME280;56258;52.196;13.868;2022-10-16T08:58:47;101158.84;;;22.95;46.04
68399;BME280;56258;52.196;13.868;2022-10-16T09:01:16;101157.38;;;22.92;45.90
68399;BME280;56258;52.196;13.868;2022-10-16T09:11:43;101178.78;;;22.87;46.26
68399;BME280;56258;52.196;13.868;2022-10-16T09:16:59;101181.44;;;22.66;46.16
68399;BME280;56258;52.196;13.868;2022-10-16T09:19:35;101182.84;;;22.62;46.34
68399;BME280;56258;52.196;13.868;2022-10-16T09:22:15;101184.31;;;22.64;46.46
68399;BME280;56258;52.196;13.868;2022-10-16T09:24:42;101185.06;;;22.73;46.68
68399;BME280;56258;52.196;13.868;2022-10-16T09:27:14;101181.72;;;23.07;45.94
68399;BME280;56258;52.196;13.868;2022-10-16T09:29:41;101179.97;;;23.70;44.12
68399;BME280;56258;52.196;13.868;2022-10-16T09:32:15;101199.78;;;23.43;44.84
68399;BME280;56258;52.196;13.868;2022-10-16T09:34:48;101200.53;;;23.37;44.84
68399;BME280;56258;52.196;13.868;2022-10-16T09:37:20;101198.75;;;23.01;45.54
68399;BME280;56258;52.196;13.868;2022-10-16T09:39:53;101208.00;;;23.07;45.60
68399;BME280;56258;52.196;13.868;2022-10-16T09:42:23;101204.13;;;23.58;44.10
68399;BME280;56258;52.196;13.868;2022-10-16T09:44:51;101208.63;;;23.51;44.69
68399;BME280;56258;52.196;13.868;2022-10-16T09:47:23;101214.00;;;25.24;40.84
68399;BME280;56258;52.196;13.868;2022-10-16T09:49:56;101219.63;;;26.29;38.38
68399;BME280;56258;52.196;13.868;2022-10-16T09:52:24;101214.50;;;26.97;37.33
68399;BME280;56258;52.196;13.868;2022-10-16T09:54:56;101211.78;;;24.93;41.09
68399;BME280;56258;52.196;13.868;2022-10-16T09:57:23;101220.72;;;24.74;41.45
68399;BME280;56258;52.196;13.868;2022-10-16T09:59:55;101210.09;;;24.38;42.27
68399;BME280;56258;52.196;13.868;2022-10-16T10:02:31;101216.22;;;24.19;42.85
68399;BME280;56258;52.196;13.868;2022-10-16T10:05:01;101225.03;;;23.86;43.54
68399;BME280;56258;52.196;13.868;2022-10-16T10:07:31;101226.09;;;24.61;42.01
68399;BME280;56258;52.196;13.868;2022-10-16T10:10:04;101216.00;;;24.13;42.92
68399;BME280;56258;52.196;13.868;2022-10-16T10:12:32;101218.34;;;23.89;43.62
68399;BME280;56258;52.196;13.868;2022-10-16T10:15:06;101223.75;;;23.61;44.53
68399;BME280;56258;52.196;13.868;2022-10-16T10:17:33;101213.34;;;23.43;44.50
68399;BME280;56258;52.196;13.868;2022-10-16T10:20:31;101221.94;;;23.46;44.88
68399;BME280;56258;52.196;13.868;2022-10-16T10:23:20;101227.44;;;23.53;44.67
68399;BME280;56258;52.196;13.868;2022-10-16T10:25:49;101226.31;;;23.47;44.73
68399;BME280;56258;52.196;13.868;2022-10-16T10:31:20;101224.31;;;23.35;45.10
68399;BME280;56258;52.196;13.868;2022-10-16T10:36:34;101234.75;;;23.31;45.41
68399;BME280;56258;52.196;13.868;2022-10-16T10:39:15;101232.91;;;23.38;45.10
68399;BME280;56258;52.196;13.868;2022-10-16T10:50:25;101238.00;;;23.63;44.78
68399;BME280;56258;52.196;13.868;2022-10-16T10:55:44;101241.06;;;23.60;44.78
68399;BME280;56258;52.196;13.868;2022-10-16T10:58:37;101246.31;;;23.61;44.33
68399;BME280;56258;52.196;13.868;2022-10-16T11:01:13;101255.22;;;23.55;44.36
68399;BME280;56258;52.196;13.868;2022-10-16T11:06:28;101262.06;;;23.51;44.86
68399;BME280;56258;52.196;13.868;2022-10-16T11:09:06;101262.44;;;23.48;44.91
68399;BME280;56258;52.196;13.868;2022-10-16T11:11:47;101261.03;;;23.52;44.65
68399;BME280;56258;52.196;13.868;2022-10-16T11:14:22;101258.41;;;23.58;44.50
68399;BME280;56258;52.196;13.868;2022-10-16T11:17:09;101254.28;;;23.63;44.51
68399;BME280;56258;52.196;13.868;2022-10-16T11:22:30;101265.78;;;23.50;44.71
68399;BME280;56258;52.196;13.868;2022-10-16T11:27:54;101263.44;;;23.62;44.58
68399;BME280;56258;52.196;13.868;2022-10-16T11:30:30;101272.13;;;23.57;44.52
68399;BME280;56258;52.196;13.868;2022-10-16T11:35:42;101272.59;;;23.61;44.47
68399;BME280;56258;52.196;13.868;2022-10-16T11:38:15;101274.47;;;23.60;44.60
68399;BME280;56258;52.196;13.868;2022-10-16T11:40:48;101287.50;;;23.65;44.25
68399;BME280;56258;52.196;13.868;2022-10-16T11:43:18;101275.16;;;23.62;44.35
68399;BME280;56258;52.196;13.868;2022-10-16T11:45:52;101280.88;;;23.52;44.61
68399;BME280;56258;52.196;13.868;2022-10-16T11:48:27;101272.97;;;23.57;44.65
68399;BME280;56258;52.196;13.868;2022-10-16T11:53:50;101277.34;;;23.73;44.30
68399;BME280;56258;52.196;13.868;2022-10-16T11:56:19;101271.63;;;23.90;43.79
68399;BME280;56258;52.196;13.868;2022-10-16T12:01:49;101276.03;;;23.69;44.32
68399;BME280;56258;52.196;13.868;2022-10-16T12:07:21;101273.84;;;24.35;42.85
68399;BME280;56258;52.196;13.868;2022-10-16T12:09:50;101276.31;;;24.30;42.72
68399;BME280;56258;52.196;13.868;2022-10-16T12:15:01;101276.75;;;24.68;41.91
68399;BME280;56258;52.196;13.868;2022-10-16T12:17:48;101278.38;;;24.28;42.74
68399;BME280;56258;52.196;13.868;2022-10-16T12:22:51;101291.50;;;25.00;41.46
68399;BME280;56258;52.196;13.868;2022-10-16T12:30:57;101312.97;;;27.40;36.89
68399;BME280;56258;52.196;13.868;2022-10-16T12:33:30;101300.69;;;27.24;36.74
68399;BME280;56258;52.196;13.868;2022-10-16T12:36:00;101298.19;;;27.23;37.08
68399;BME280;56258;52.196;13.868;2022-10-16T12:38:37;101299.69;;;26.54;38.22
68399;BME280;56258;52.196;13.868;2022-10-16T12:41:07;101301.50;;;26.73;38.36
68399;BME280;56258;52.196;13.868;2022-10-16T12:48:41;101295.72;;;27.08;37.64
68399;BME280;56258;52.196;13.868;2022-10-16T12:51:24;101296.28;;;27.23;37.29
68399;BME280;56258;52.196;13.868;2022-10-16T13:08:00;101298.72;;;27.31;37.80
68399;BME280;56258;52.196;13.868;2022-10-16T13:13:17;101297.13;;;27.24;37.38
68399;BME280;56258;52.196;13.868;2022-10-16T13:18:52;101306.94;;;27.31;37.89
68399;BME280;56258;52.196;13.868;2022-10-16T13:21:47;101308.28;;;27.16;37.78
68399;BME280;56258;52.196;13.868;2022-10-16T13:30:26;101325.25;;;27.24;38.06
68399;BME280;56258;52.196;13.868;2022-10-16T13:33:04;101323.16;;;27.20;38.29
68399;BME280;56258;52.196;13.868;2022-10-16T13:35:34;101333.25;;;27.19;38.40
68399;BME280;56258;52.196;13.868;2022-10-16T13:38:16;101336.03;;;27.13;38.35
68399;BME280;56258;52.196;13.868;2022-10-16T13:41:04;101339.34;;;27.21;38.29
68399;BME280;56258;52.196;13.868;2022-10-16T13:43:39;101343.47;;;27.30;37.98
68399;BME280;56258;52.196;13.868;2022-10-16T13:46:18;101333.97;;;27.40;37.60
68399;BME280;56258;52.196;13.868;2022-10-16T13:49:12;101335.84;;;27.46;37.66
68399;BME280;56258;52.196;13.868;2022-10-16T13:51:38;101353.72;;;27.42;37.77
68399;BME280;56258;52.196;13.868;2022-10-16T13:54:07;101344.25;;;27.44;37.91
68399;BME280;56258;52.196;13.868;2022-10-16T13:56:35;101348.44;;;27.47;37.73
68399;BME280;56258;52.196;13.868;2022-10-16T13:59:20;101351.56;;;27.50;37.58
68399;BME280;56258;52.196;13.868;2022-10-16T14:01:50;101353.81;;;27.60;37.58
68399;BME280;56258;52.196;13.868;2022-10-16T14:04:18;101355.94;;;27.58;37.55
68399;BME280;56258;52.196;13.868;2022-10-16T14:06:47;101352.53;;;27.62;37.65
68399;BME280;56258;52.196;13.868;2022-10-16T14:11:55;101363.72;;;27.54;37.72
68399;BME280;56258;52.196;13.868;2022-10-16T14:14:24;101370.47;;;27.52;37.92
68399;BME280;56258;52.196;13.868;2022-10-16T14:16:53;101364.53;;;27.61;37.57
68399;BME280;56258;52.196;13.868;2022-10-16T14:19:27;101372.13;;;27.53;37.86
68399;BME280;56258;52.196;13.868;2022-10-16T14:21:55;101368.56;;;27.52;37.84
68399;BME280;56258;52.196;13.868;2022-10-16T14:24:30;101371.06;;;27.54;37.75
68399;BME280;56258;52.196;13.868;2022-10-16T14:26:58;101372.34;;;27.51;37.44
68399;BME280;56258;52.196;13.868;2022-10-16T14:29:26;101376.97;;;27.57;37.42
68399;BME280;56258;52.196;13.868;2022-10-16T14:32:01;101373.19;;;27.52;37.73
68399;BME280;56258;52.196;13.868;2022-10-16T14:34:30;101366.88;;;27.07;38.43
68399;BME280;56258;52.196;13.868;2022-10-16T14:37:27;101370.91;;;26.84;39.01
68399;BME280;56258;52.196;13.868;2022-10-16T14:39:55;101377.66;;;26.82;39.38
68399;BME280;56258;52.196;13.868;2022-10-16T14:42:24;101377.69;;;26.68;39.45
68399;BME280;56258;52.196;13.868;2022-10-16T14:44:53;101379.16;;;26.58;39.93
68399;BME280;56258;52.196;13.868;2022-10-16T14:47:22;101390.25;;;26.69;39.39
68399;BME280;56258;52.196;13.868;2022-10-16T14:49:53;101383.75;;;26.77;39.46
68399;BME280;56258;52.196;13.868;2022-10-16T14:52:25;101386.88;;;26.74;39.10
68399;BME280;56258;52.196;13.868;2022-10-16T14:54:51;101379.13;;;26.71;39.49